logo tempoitalia

Diretta Meteo Colby, Stati Uniti (USA)lunedì 31 agosto ore 01:35

Mappa
Sereno 21 °C Pioggia 24 Ore: T.min 17 T.max 35
Ponente Sud/Sud-Est Km/h 16.7 Punto di rugiada: 19 °C Umidità: 88% Visibilità: 10 Km
Il sole sorge alle: 07:11 Il sole tramonta alle: 20:16
31 Agosto 2026 01:35 tempo osservato: Pioggia Pioggia 21 88 1017 vento: Nord S/SE 16.7
31 Agosto 2026 01:15 tempo osservato: Pioggia Pioggia 22 68 1017 vento: Nord O 24
31 Agosto 2026 00:55 tempo osservato: Pioggia Pioggia 22 68 1018 vento: Nord O/SO 16.7
31 Agosto 2026 00:35 tempo osservato: Molto Nuvoloso Molto Nuvoloso 25 50 1017 vento: Nord N/NO 16.7
31 Agosto 2026 00:15 tempo osservato: Sereno Sereno 25 50 1016 vento: Nord N 5.5
30 Agosto 2026 23:55 tempo osservato: Nuvoloso Nuvoloso 25 50 1016 vento: Nord NO 13
30 Agosto 2026 23:35 tempo osservato: Sereno Sereno 25 50 1016 vento: Nord N/NO 14.8
30 Agosto 2026 23:15 tempo osservato: Sereno Sereno 25 50 1016 vento: Nord NO 14.8
30 Agosto 2026 22:55 tempo osservato: Sereno Sereno 26 47 1015 vento: Nord N 14.8
30 Agosto 2026 22:35 tempo osservato: Sereno Sereno 27 44 1015 vento: Nord N/NO 14.8
30 Agosto 2026 22:15 tempo osservato: Sereno Sereno 27 47 1015 vento: Nord N/NO 13
30 Agosto 2026 21:55 tempo osservato: Sereno Sereno 27 47 1015 vento: Nord E/NE 7.4
30 Agosto 2026 21:35 tempo osservato: Sereno Sereno 26 54 1015 vento: Nord E 7.4
30 Agosto 2026 21:15 tempo osservato: Sereno Sereno 26 54 1014 vento: Nord E 9.3
30 Agosto 2026 20:55 tempo osservato: Sereno Sereno 27 47 1014 vento: Nord E 9.3
30 Agosto 2026 20:35 tempo osservato: Sereno Sereno 28 45 1014 vento: Nord E/NE 9.3
30 Agosto 2026 20:15 tempo osservato: Sereno Sereno 28 45 1014 vento: Nord NE 7.4
30 Agosto 2026 19:55 tempo osservato: Sereno Sereno 30 40 1014 vento: Nord E 9.3
30 Agosto 2026 19:35 tempo osservato: Sereno Sereno 31 37 1014 vento: Nord E 11.1
30 Agosto 2026 19:15 tempo osservato: Sereno Sereno 32 35 1014 vento: Nord E 13
30 Agosto 2026 18:55 tempo osservato: Sereno Sereno 33 31 1014 vento: Nord E 13
30 Agosto 2026 18:35 tempo osservato: Sereno Sereno 33 29 1014 vento: Nord E/SE 14.8
30 Agosto 2026 18:15 tempo osservato: Sereno Sereno 34 28 1014 vento: Nord E/SE 16.7
30 Agosto 2026 17:55 tempo osservato: Sereno Sereno 35 26 1014 vento: Nord E/SE 11.1
30 Agosto 2026 17:35 tempo osservato: Sereno Sereno 34 30 1013 vento: Nord SE 13
30 Agosto 2026 17:15 tempo osservato: Sereno Sereno 33 29 1013 vento: Nord SE 7.4
30 Agosto 2026 16:55 tempo osservato: Sereno Sereno 34 28 1013 vento: Nord N 5.5
30 Agosto 2026 16:35 tempo osservato: Sereno Sereno 34 28 1014 vento: Nord N 5.5
30 Agosto 2026 16:15 tempo osservato: Sereno Sereno 35 24 1014 vento: Nord E/SE 9.3
30 Agosto 2026 15:55 tempo osservato: Sereno Sereno 35 26 1014 vento: Nord E/SE 7.4
30 Agosto 2026 15:35 tempo osservato: Sereno Sereno 35 26 1014 vento: Nord SO 7.4
30 Agosto 2026 15:15 tempo osservato: Sereno Sereno 34 26 1014 vento: Nord N 5.5
30 Agosto 2026 14:55 tempo osservato: Sereno Sereno 34 26 1014 vento: Nord N 5.5
30 Agosto 2026 14:35 tempo osservato: Sereno Sereno 33 26 1014 vento: Nord O 7.4
30 Agosto 2026 14:15 tempo osservato: Sereno Sereno 33 26 1014 vento: Nord N/NE 11.1
30 Agosto 2026 13:55 tempo osservato: Sereno Sereno 32 27 1014 vento: Nord N 11.1
30 Agosto 2026 13:35 tempo osservato: Sereno Sereno 32 29 1014 vento: Nord N 7.4
30 Agosto 2026 13:15 tempo osservato: Sereno Sereno 32 29 1015 vento: Nord N 11.1
30 Agosto 2026 12:55 tempo osservato: Sereno Sereno 31 33 1015 vento: Nord N/NO 16.7
30 Agosto 2026 12:35 tempo osservato: Sereno Sereno 32 33 1015 vento: Nord N/NO 20.3
30 Agosto 2026 12:15 tempo osservato: Sereno Sereno 31 35 1015 vento: Nord NO 20.3
30 Agosto 2026 11:55 tempo osservato: Sereno Sereno 31 35 1015 vento: Nord NO 18.5
30 Agosto 2026 11:35 tempo osservato: Sereno Sereno 31 35 1015 vento: Nord N/NO 20.3
30 Agosto 2026 11:15 tempo osservato: Sereno Sereno 28 42 1015 vento: Nord N/NO 20.3
30 Agosto 2026 10:55 tempo osservato: Sereno Sereno 28 45 1016 vento: Nord NO 16.7
30 Agosto 2026 10:35 tempo osservato: Nuvoloso Nuvoloso 26 50 1015 vento: Nord O/NO 20.3
30 Agosto 2026 10:15 tempo osservato: Nuvoloso Nuvoloso 24 57 1015 vento: Nord NO 14.8
30 Agosto 2026 09:55 tempo osservato: Nuvoloso Nuvoloso 23 60 1015 vento: Nord NO 20.3
30 Agosto 2026 09:35 tempo osservato: Nuvoloso Nuvoloso 22 68 1014 vento: Nord N/NO 18.5
30 Agosto 2026 09:15 tempo osservato: Sereno Sereno 23 64 1014 vento: Nord NO 16.7
30 Agosto 2026 08:55 tempo osservato: Sereno Sereno 22 68 1014 vento: Nord O/NO 16.7
30 Agosto 2026 08:35 tempo osservato: Sereno Sereno 20 77 1014 vento: Nord O 14.8
30 Agosto 2026 08:15 tempo osservato: Sereno Sereno 19 82 1014 vento: Nord O/NO 14.8
30 Agosto 2026 07:55 tempo osservato: Sereno Sereno 19 82 1014 vento: Nord O/NO 14.8
30 Agosto 2026 07:35 tempo osservato: Sereno Sereno 18 88 1014 vento: Nord O/NO 11.1
30 Agosto 2026 07:15 tempo osservato: Sereno Sereno 18 88 1013 vento: Nord O 13
30 Agosto 2026 06:55 tempo osservato: Sereno Sereno 17 93 1013 vento: Nord O/NO 11.1
30 Agosto 2026 06:35 tempo osservato: Sereno Sereno 17 93 1013 vento: Nord O 11.1
30 Agosto 2026 06:15 tempo osservato: Sereno Sereno 17 93 1013 vento: Nord O 13
30 Agosto 2026 05:55 tempo osservato: Sereno Sereno 18 93 1013 vento: Nord O 9.3
30 Agosto 2026 05:35 tempo osservato: Sereno Sereno 18 93 1013 vento: Nord O/NO 11.1
30 Agosto 2026 05:15 tempo osservato: Sereno Sereno 18 93 1012 vento: Nord NO 13
30 Agosto 2026 04:55 tempo osservato: Sereno Sereno 18 93 1012 vento: Nord NO 13
30 Agosto 2026 04:35 tempo osservato: Sereno Sereno 18 93 1013 vento: Nord NO 13
30 Agosto 2026 04:15 tempo osservato: Sereno Sereno 19 88 1013 vento: Nord O/NO 13
30 Agosto 2026 03:55 tempo osservato: Sereno Sereno 19 88 1013 vento: Nord O/NO 14.8
30 Agosto 2026 03:35 tempo osservato: Sereno Sereno 19 88 1013 vento: Nord O/NO 11.1
30 Agosto 2026 03:15 tempo osservato: Sereno Sereno 20 82 1013 vento: Nord O/NO 13
30 Agosto 2026 02:55 tempo osservato: Sereno Sereno 20 77 1013 vento: Nord NO 9.3
30 Agosto 2026 02:35 tempo osservato: Sereno Sereno 21 73 1013 vento: Nord N 11.1
30 Agosto 2026 02:15 tempo osservato: Sereno Sereno 22 68 1014 vento: Nord N/NO 9.3
30 Agosto 2026 01:55 tempo osservato: Sereno Sereno 22 68 1014 vento: Nord N 14.8
30 Agosto 2026 01:35 tempo osservato: Sereno Sereno 22 68 1014 vento: Nord N 22.2